createdAt,value
2022-10-01T00:00:04.611Z,97.37
2022-10-01T00:02:31.099Z,97.31
2022-10-01T00:04:57.632Z,97.58
2022-10-01T00:07:24.182Z,97.44
2022-10-01T00:09:50.598Z,97.47
2022-10-01T00:12:16.971Z,97.37
2022-10-01T00:14:44.427Z,97.27
2022-10-01T00:17:10.798Z,97.35
2022-10-01T00:19:37.154Z,97.46
2022-10-01T00:22:03.543Z,97.43
2022-10-01T00:24:29.915Z,97.52
2022-10-01T00:26:57.713Z,97.45
2022-10-01T00:29:24.204Z,97.50
2022-10-01T00:31:50.724Z,97.70
2022-10-01T00:34:17.155Z,97.58
2022-10-01T00:36:43.505Z,97.64
2022-10-01T00:39:11.894Z,97.81
2022-10-01T00:41:38.447Z,97.73
2022-10-01T00:44:28.243Z,97.71
2022-10-01T00:46:58.376Z,97.88
2022-10-01T00:49:27.777Z,97.84
2022-10-01T00:51:58.532Z,97.87
2022-10-01T00:54:57.602Z,97.85
2022-10-01T00:57:27.294Z,97.90
2022-10-01T00:59:58.178Z,97.97
2022-10-01T01:02:24.687Z,98.27
2022-10-01T01:04:51.150Z,98.51
2022-10-01T01:07:18.030Z,98.44
2022-10-01T01:09:49.941Z,98.35
2022-10-01T01:12:25.480Z,98.42
2022-10-01T01:15:07.486Z,98.48
2022-10-01T01:17:47.470Z,98.39
2022-10-01T01:20:41.765Z,98.23
2022-10-01T01:23:14.290Z,98.35
2022-10-01T01:25:49.050Z,98.35
2022-10-01T01:28:31.562Z,98.34
2022-10-01T01:31:22.848Z,98.34
2022-10-01T01:33:53.570Z,98.31
2022-10-01T01:36:30.298Z,98.37
2022-10-01T01:39:00.112Z,98.37
2022-10-01T01:41:29.632Z,98.33
2022-10-01T01:44:01.060Z,98.29
2022-10-01T01:46:31.963Z,98.28
2022-10-01T01:49:00.035Z,98.24
2022-10-01T01:51:41.123Z,98.37
2022-10-01T01:54:08.574Z,98.49
2022-10-01T01:56:35.735Z,98.32
2022-10-01T01:59:03.508Z,98.60
2022-10-01T02:01:49.501Z,98.69
2022-10-01T02:04:30.678Z,98.76
2022-10-01T02:07:28.339Z,98.62
2022-10-01T02:10:12.785Z,98.88
2022-10-01T02:13:01.845Z,99.00
2022-10-01T02:15:42.037Z,99.04
2022-10-01T02:18:22.947Z,98.87
2022-10-01T02:21:01.762Z,98.84
2022-10-01T02:23:40.339Z,98.75
2022-10-01T02:26:19.227Z,98.73
2022-10-01T02:28:48.048Z,98.68
2022-10-01T02:31:15.687Z,98.76
2022-10-01T02:33:44.003Z,98.62
2022-10-01T02:36:11.674Z,98.52
2022-10-01T02:38:42.187Z,98.75
2022-10-01T02:41:13.064Z,98.77
2022-10-01T02:43:51.645Z,98.71
2022-10-01T02:46:27.739Z,98.62
2022-10-01T02:48:55.312Z,98.65
2022-10-01T02:51:35.944Z,98.78
2022-10-01T02:54:30.141Z,98.91
2022-10-01T02:57:16.199Z,98.91
2022-10-01T02:59:42.603Z,98.79
2022-10-01T03:02:09.240Z,98.89
2022-10-01T03:04:35.693Z,98.84
2022-10-01T03:07:04.351Z,99.05
2022-10-01T03:09:31.844Z,99.17
2022-10-01T03:11:59.461Z,99.22
2022-10-01T03:14:25.952Z,99.21
2022-10-01T03:16:53.046Z,99.27
2022-10-01T03:19:20.140Z,99.31
2022-10-01T03:21:47.192Z,99.28
2022-10-01T03:24:13.732Z,99.34
2022-10-01T03:26:40.063Z,99.20
2022-10-01T03:29:06.552Z,99.15
2022-10-01T03:31:33.379Z,99.72
2022-10-01T03:34:00.772Z,99.53
2022-10-01T03:36:27.628Z,99.49
2022-10-01T03:38:54.064Z,99.50
2022-10-01T03:41:20.669Z,99.47
2022-10-01T03:43:47.122Z,99.28
2022-10-01T03:46:13.765Z,99.35
2022-10-01T03:48:40.162Z,99.47
2022-10-01T03:51:07.102Z,99.39
2022-10-01T03:53:33.485Z,99.47
2022-10-01T03:56:02.265Z,99.37
2022-10-01T03:58:28.715Z,99.50
2022-10-01T04:00:55.921Z,99.41
2022-10-01T04:03:22.328Z,99.41
2022-10-01T04:05:48.670Z,99.37
2022-10-01T04:08:15.280Z,99.40
2022-10-01T04:10:42.123Z,99.44
2022-10-01T04:13:09.237Z,99.52
2022-10-01T04:15:35.612Z,99.56
2022-10-01T04:18:05.448Z,99.48
2022-10-01T04:20:36.310Z,99.58
2022-10-01T04:23:03.827Z,99.63
2022-10-01T04:25:30.503Z,99.89
2022-10-01T04:28:01.978Z,99.80
2022-10-01T04:30:31.977Z,99.99
2022-10-01T04:32:58.922Z,99.99
2022-10-01T04:35:26.133Z,99.99
2022-10-01T04:37:58.376Z,99.99
2022-10-01T04:40:25.432Z,99.99
2022-10-01T04:42:52.131Z,99.99
2022-10-01T04:45:18.533Z,99.99
2022-10-01T04:47:50.664Z,99.99
2022-10-01T04:50:18.320Z,99.99
2022-10-01T04:52:44.870Z,99.99
2022-10-01T04:55:11.522Z,99.99
2022-10-01T04:57:39.552Z,99.99
2022-10-01T05:00:09.189Z,99.99
2022-10-01T05:02:35.674Z,99.99
2022-10-01T05:05:04.080Z,99.99
2022-10-01T05:07:32.012Z,99.99
2022-10-01T05:09:58.827Z,99.99
2022-10-01T05:12:25.854Z,99.99
2022-10-01T05:14:53.098Z,99.99
2022-10-01T05:17:19.986Z,99.98
2022-10-01T05:19:47.092Z,99.99
2022-10-01T05:22:14.467Z,99.99
2022-10-01T05:24:41.169Z,99.99
2022-10-01T05:27:12.124Z,99.90
2022-10-01T05:29:39.310Z,99.88
2022-10-01T05:32:05.959Z,99.77
2022-10-01T05:34:32.668Z,99.78
2022-10-01T05:36:59.056Z,98.73
2022-10-01T05:39:25.434Z,97.84
2022-10-01T05:41:52.757Z,97.94
2022-10-01T05:44:19.332Z,98.21
2022-10-01T05:46:45.683Z,97.42
2022-10-01T05:49:12.084Z,96.38
2022-10-01T05:51:38.500Z,95.65
2022-10-01T05:54:04.916Z,96.46
2022-10-01T05:56:31.295Z,96.55
2022-10-01T05:58:58.225Z,95.98
2022-10-01T06:01:24.572Z,95.46
2022-10-01T06:03:52.355Z,95.38
2022-10-01T06:06:23.521Z,94.35
2022-10-01T06:08:49.899Z,94.89
2022-10-01T06:11:17.032Z,93.90
2022-10-01T06:13:45.319Z,93.54
2022-10-01T06:16:15.116Z,91.61
2022-10-01T06:18:42.356Z,91.85
2022-10-01T06:21:09.898Z,91.88
2022-10-01T06:23:36.691Z,91.43
2022-10-01T06:26:08.249Z,91.81
2022-10-01T06:28:34.672Z,92.06
2022-10-01T06:31:02.446Z,92.03
2022-10-01T06:33:28.972Z,91.53
2022-10-01T06:35:55.485Z,90.65
2022-10-01T06:38:23.638Z,92.05
2022-10-01T06:40:54.942Z,90.53
2022-10-01T06:43:22.836Z,89.95
2022-10-01T06:45:49.381Z,90.00
2022-10-01T06:48:17.156Z,89.79
2022-10-01T06:50:45.138Z,89.50
2022-10-01T06:53:12.968Z,89.94
2022-10-01T06:55:39.762Z,89.66
2022-10-01T06:58:09.984Z,90.50
2022-10-01T07:00:39.013Z,89.67
2022-10-01T07:03:11.010Z,90.34
2022-10-01T07:05:40.735Z,89.50
2022-10-01T07:08:08.019Z,89.30
2022-10-01T07:10:35.407Z,88.74
2022-10-01T07:13:09.761Z,89.52
2022-10-01T07:15:36.710Z,88.69
2022-10-01T07:18:03.562Z,88.40
2022-10-01T07:20:33.094Z,87.97
2022-10-01T07:23:00.345Z,87.77
2022-10-01T07:25:27.979Z,87.82
2022-10-01T07:27:58.789Z,86.84
2022-10-01T07:30:25.837Z,87.45
2022-10-01T07:32:52.233Z,87.28
2022-10-01T07:35:20.364Z,86.52
2022-10-01T07:37:48.082Z,86.10
2022-10-01T07:40:16.392Z,86.19
2022-10-01T07:42:43.572Z,86.28
2022-10-01T07:45:10.790Z,86.46
2022-10-01T07:47:37.194Z,84.81
2022-10-01T07:50:04.117Z,84.96
2022-10-01T07:52:30.477Z,85.28
2022-10-01T07:54:56.914Z,84.62
2022-10-01T07:57:23.615Z,83.29
2022-10-01T07:59:54.881Z,82.73
2022-10-01T08:02:22.249Z,81.46
2022-10-01T08:05:07.335Z,81.64
2022-10-01T08:07:35.684Z,81.47
2022-10-01T08:10:04.655Z,81.64
2022-10-01T08:12:31.085Z,81.70
2022-10-01T08:14:57.475Z,81.11
2022-10-01T08:17:29.213Z,81.70
2022-10-01T08:19:56.009Z,80.04
2022-10-01T08:22:22.378Z,80.51
2022-10-01T08:24:48.738Z,80.81
2022-10-01T08:27:15.300Z,79.46
2022-10-01T08:29:43.191Z,80.18
2022-10-01T08:32:10.528Z,80.54
2022-10-01T08:34:37.101Z,79.81
2022-10-01T08:37:03.479Z,79.63
2022-10-01T08:39:29.836Z,78.42
2022-10-01T08:42:26.202Z,78.81
2022-10-01T08:44:53.206Z,79.09
2022-10-01T08:47:31.158Z,77.89
2022-10-01T08:50:08.130Z,77.43
2022-10-01T08:52:42.775Z,76.64
2022-10-01T08:55:20.304Z,76.93
2022-10-01T08:57:54.942Z,76.83
2022-10-01T09:00:21.835Z,76.01
2022-10-01T09:02:49.270Z,77.51
2022-10-01T09:05:47.824Z,76.26
2022-10-01T09:08:44.583Z,76.19
2022-10-01T09:11:32.962Z,76.24
2022-10-01T09:14:20.753Z,75.75
2022-10-01T09:20:43.713Z,71.97
2022-10-01T09:23:32.952Z,72.27
2022-10-01T09:26:00.206Z,72.25
2022-10-01T09:28:33.348Z,72.55
2022-10-01T09:30:59.827Z,74.82
2022-10-01T09:33:33.202Z,73.37
2022-10-01T09:36:11.444Z,74.31
2022-10-01T09:38:48.206Z,75.26
2022-10-01T09:41:14.854Z,75.99
2022-10-01T09:43:43.553Z,75.55
2022-10-01T09:46:14.991Z,75.48
2022-10-01T09:49:10.348Z,75.20
2022-10-01T09:51:42.759Z,76.82
2022-10-01T09:54:28.020Z,76.00
2022-10-01T09:57:10.220Z,77.34
2022-10-01T10:00:01.510Z,78.05
2022-10-01T10:02:32.783Z,78.84
2022-10-01T10:05:04.839Z,79.73
2022-10-01T10:07:32.594Z,80.45
2022-10-01T10:10:09.565Z,80.79
2022-10-01T10:12:36.266Z,81.70
2022-10-01T10:15:13.823Z,82.17
2022-10-01T10:17:44.220Z,83.56
2022-10-01T10:20:16.149Z,84.90
2022-10-01T10:22:42.557Z,84.55
2022-10-01T10:25:19.788Z,86.11
2022-10-01T10:27:55.626Z,85.42
2022-10-01T10:30:24.422Z,87.31
2022-10-01T10:32:52.348Z,87.54
2022-10-01T10:35:28.467Z,87.15
2022-10-01T10:38:00.143Z,89.32
2022-10-01T10:40:41.615Z,88.86
2022-10-01T10:43:22.721Z,89.67
2022-10-01T10:45:56.127Z,90.71
2022-10-01T10:48:28.121Z,91.38
2022-10-01T10:51:03.276Z,91.34
2022-10-01T10:53:44.292Z,92.49
2022-10-01T10:56:22.702Z,92.52
2022-10-01T10:58:51.094Z,92.26
2022-10-01T11:01:27.800Z,93.00
2022-10-01T11:03:58.274Z,92.48
2022-10-01T11:06:24.886Z,92.37
2022-10-01T11:09:00.091Z,93.48
2022-10-01T11:11:54.956Z,93.35
2022-10-01T11:14:24.123Z,93.41
2022-10-01T11:17:18.712Z,93.63
2022-10-01T11:20:19.851Z,93.70
2022-10-01T11:23:03.939Z,93.03
2022-10-01T11:26:05.948Z,92.64
2022-10-01T11:28:48.635Z,92.55
2022-10-01T11:31:31.239Z,93.40
2022-10-01T11:34:07.562Z,92.58
2022-10-01T11:36:45.199Z,92.98
2022-10-01T11:39:17.285Z,93.30
2022-10-01T11:41:49.049Z,93.06
2022-10-01T11:44:24.279Z,93.83
2022-10-01T11:47:01.886Z,92.95
2022-10-01T11:49:45.232Z,93.93
2022-10-01T11:52:29.683Z,94.14
2022-10-01T11:55:38.945Z,94.10
2022-10-01T11:58:52.904Z,94.06
2022-10-01T12:01:41.020Z,94.35
2022-10-01T12:04:28.742Z,93.64
2022-10-01T12:07:10.561Z,94.38
2022-10-01T12:09:55.223Z,94.32
2022-10-01T12:12:36.258Z,93.01
2022-10-01T12:15:20.002Z,93.41
2022-10-01T12:17:56.366Z,93.32
2022-10-01T12:20:28.514Z,93.87
2022-10-01T12:22:56.825Z,93.82
2022-10-01T12:25:28.982Z,94.25
2022-10-01T12:28:05.164Z,94.62
2022-10-01T12:30:43.060Z,94.55
2022-10-01T12:33:27.707Z,95.27
2022-10-01T12:35:56.850Z,95.26
2022-10-01T12:38:37.442Z,95.02
2022-10-01T12:41:22.655Z,96.27
2022-10-01T12:44:03.242Z,96.00
2022-10-01T12:46:44.697Z,96.08
2022-10-01T12:49:32.771Z,96.46
2022-10-01T12:52:25.054Z,96.08
2022-10-01T12:55:04.236Z,96.61
2022-10-01T12:58:12.667Z,96.34
2022-10-01T13:00:49.536Z,96.34
2022-10-01T13:03:26.999Z,96.27
2022-10-01T13:06:08.471Z,95.87
2022-10-01T13:08:42.011Z,95.80
2022-10-01T13:11:20.741Z,95.74
2022-10-01T13:13:52.627Z,95.87
2022-10-01T13:16:30.184Z,95.75
2022-10-01T13:19:05.626Z,95.42
2022-10-01T13:22:14.778Z,95.34
2022-10-01T13:25:09.170Z,96.06
2022-10-01T13:27:41.901Z,96.18
2022-10-01T13:30:18.903Z,95.90
2022-10-01T13:33:05.024Z,95.79
2022-10-01T13:35:39.364Z,95.52
2022-10-01T13:38:17.103Z,95.21
2022-10-01T13:40:44.086Z,95.25
2022-10-01T13:43:24.136Z,94.86
2022-10-01T13:45:55.202Z,94.89
2022-10-01T13:48:34.638Z,94.79
2022-10-01T13:51:12.938Z,95.04
2022-10-01T13:53:42.184Z,94.92
2022-10-01T13:56:14.535Z,95.71
2022-10-01T13:58:46.888Z,95.25
2022-10-01T14:01:20.002Z,95.02
2022-10-01T14:03:58.224Z,95.01
2022-10-01T14:06:30.532Z,94.97
2022-10-01T14:09:06.617Z,95.23
2022-10-01T14:11:54.495Z,95.52
2022-10-01T14:14:47.308Z,95.59
2022-10-01T14:17:14.949Z,96.20
2022-10-01T14:19:47.031Z,95.55
2022-10-01T14:22:48.129Z,95.98
2022-10-01T14:25:41.421Z,96.12
2022-10-01T14:28:17.779Z,96.17
2022-10-01T14:31:05.112Z,96.58
2022-10-01T14:33:48.690Z,96.38
2022-10-01T14:36:17.712Z,96.25
2022-10-01T14:38:44.155Z,96.34
2022-10-01T14:41:19.314Z,95.99
2022-10-01T14:43:46.175Z,96.31
2022-10-01T14:46:16.400Z,96.55
2022-10-01T14:48:43.897Z,96.71
2022-10-01T14:51:28.453Z,96.69
2022-10-01T14:53:59.762Z,96.60
2022-10-01T14:56:28.058Z,96.45
2022-10-01T14:59:04.073Z,96.57
2022-10-01T15:01:30.501Z,96.24
2022-10-01T15:03:57.114Z,96.16
2022-10-01T15:06:27.984Z,96.68
2022-10-01T15:08:56.140Z,96.55
2022-10-01T15:11:25.719Z,96.22
2022-10-01T15:13:55.324Z,95.34
2022-10-01T15:16:24.857Z,94.40
2022-10-01T15:18:54.721Z,94.37
2022-10-01T15:21:25.881Z,95.17
2022-10-01T15:23:52.911Z,95.27
2022-10-01T15:26:23.448Z,95.11
2022-10-01T15:28:50.133Z,95.45
2022-10-01T15:31:17.157Z,95.55
2022-10-01T15:33:43.767Z,95.64
2022-10-01T15:36:17.114Z,95.81
2022-10-01T15:38:46.034Z,96.23
2022-10-01T15:41:31.730Z,96.11
2022-10-01T15:44:03.404Z,96.21
2022-10-01T15:46:33.416Z,95.90
2022-10-01T15:49:20.403Z,95.89
2022-10-01T15:52:17.661Z,95.60
2022-10-01T15:54:45.532Z,95.60
2022-10-01T15:57:19.617Z,95.96
2022-10-01T15:59:47.376Z,96.34
2022-10-01T16:02:24.299Z,96.74
2022-10-01T16:04:56.093Z,96.89
2022-10-01T16:07:28.430Z,97.38
2022-10-01T16:10:00.306Z,97.24
2022-10-01T16:12:28.446Z,97.90
2022-10-01T16:15:00.656Z,97.90
2022-10-01T16:17:33.017Z,98.06
2022-10-01T16:20:34.527Z,97.51
2022-10-01T16:23:47.805Z,97.58
2022-10-01T16:26:35.773Z,97.72
2022-10-01T16:29:14.631Z,97.83
2022-10-01T16:31:44.174Z,97.76
2022-10-01T16:34:12.638Z,99.15
2022-10-01T16:36:39.506Z,99.54
2022-10-01T16:39:08.776Z,98.87
2022-10-01T16:41:35.721Z,98.61
2022-10-01T16:44:05.002Z,98.56
2022-10-01T16:46:31.911Z,98.41
2022-10-01T16:48:58.825Z,98.62
2022-10-01T16:51:25.277Z,98.58
2022-10-01T16:53:52.022Z,98.69
2022-10-01T16:56:19.836Z,99.18
2022-10-01T16:58:47.815Z,99.15
2022-10-01T17:01:15.460Z,99.56
2022-10-01T17:03:42.066Z,99.42
2022-10-01T17:06:08.492Z,99.58
2022-10-01T17:08:34.960Z,99.51
2022-10-01T17:11:02.554Z,99.78
2022-10-01T17:13:32.619Z,99.71
2022-10-01T17:15:59.185Z,99.59
2022-10-01T17:18:25.671Z,99.99
2022-10-01T17:20:52.111Z,99.99
2022-10-01T17:23:22.167Z,99.99
2022-10-01T17:25:49.366Z,99.99
2022-10-01T17:28:19.756Z,99.99
2022-10-01T17:30:48.008Z,99.99
2022-10-01T17:33:16.417Z,99.99
2022-10-01T17:35:44.684Z,99.99
2022-10-01T17:38:12.354Z,99.99
2022-10-01T17:40:42.990Z,99.99
2022-10-01T17:43:11.641Z,99.99
2022-10-01T17:45:38.094Z,99.99
2022-10-01T17:48:04.694Z,99.99
2022-10-01T17:50:31.395Z,99.99
2022-10-01T17:52:59.190Z,99.99
2022-10-01T17:55:25.725Z,99.99
2022-10-01T17:57:52.193Z,99.66
2022-10-01T18:00:19.134Z,99.59
2022-10-01T18:02:46.399Z,99.70
2022-10-01T18:05:14.673Z,99.86
2022-10-01T18:07:42.492Z,99.92
2022-10-01T18:10:12.218Z,99.99
2022-10-01T18:12:38.889Z,99.70
2022-10-01T18:15:05.714Z,99.81
2022-10-01T18:17:32.954Z,99.82
2022-10-01T18:19:59.409Z,99.85
2022-10-01T18:22:26.567Z,99.83
2022-10-01T18:24:52.998Z,99.73
2022-10-01T18:27:19.427Z,99.61
2022-10-01T18:29:45.776Z,99.67
2022-10-01T18:32:24.231Z,99.65
2022-10-01T18:34:54.320Z,99.65
2022-10-01T18:37:40.460Z,99.77
2022-10-01T18:40:27.363Z,99.99
2022-10-01T18:43:04.292Z,99.99
2022-10-01T18:45:36.817Z,99.99
2022-10-01T18:48:04.159Z,99.99
2022-10-01T18:50:45.633Z,99.99
2022-10-01T18:53:31.437Z,99.91
2022-10-01T18:56:06.671Z,99.90
2022-10-01T18:58:52.362Z,99.99
2022-10-01T19:01:37.375Z,99.99
2022-10-01T19:04:03.759Z,99.99
2022-10-01T19:06:48.856Z,99.99
2022-10-01T19:09:15.148Z,99.99
2022-10-01T19:12:03.579Z,99.99
2022-10-01T19:15:12.786Z,99.99
2022-10-01T19:18:12.197Z,99.99
2022-10-01T19:21:16.030Z,99.99
2022-10-01T19:24:15.213Z,99.99
2022-10-01T19:26:52.140Z,99.99
2022-10-01T19:29:54.924Z,99.95
2022-10-01T19:32:25.620Z,99.92
2022-10-01T19:35:02.199Z,99.76
2022-10-01T19:37:42.397Z,99.97
2022-10-01T19:40:35.395Z,99.99
2022-10-01T19:43:20.492Z,99.90
2022-10-01T19:46:03.472Z,99.99
2022-10-01T19:49:10.827Z,99.99
2022-10-01T19:51:43.676Z,99.99
2022-10-01T19:54:19.352Z,99.99
2022-10-01T19:56:52.039Z,99.99
2022-10-01T19:59:19.885Z,99.95
2022-10-01T20:01:53.009Z,99.99
2022-10-01T20:04:40.486Z,99.99
2022-10-01T20:07:13.488Z,99.87
2022-10-01T20:09:55.589Z,99.64
2022-10-01T20:12:31.009Z,99.53
2022-10-01T20:15:22.953Z,99.40
2022-10-01T20:17:55.102Z,99.41
2022-10-01T20:20:33.134Z,99.02
2022-10-01T20:23:24.041Z,99.14
2022-10-01T20:26:06.930Z,99.02
2022-10-01T20:29:07.037Z,99.12
2022-10-01T20:31:55.530Z,98.90
2022-10-01T20:34:50.894Z,98.88
2022-10-01T20:37:43.737Z,98.79
2022-10-01T20:40:27.159Z,98.61
2022-10-01T20:43:00.130Z,98.82
2022-10-01T20:45:28.666Z,98.74
2022-10-01T20:48:00.165Z,98.65
2022-10-01T20:50:34.024Z,98.87
2022-10-01T20:53:30.197Z,98.86
2022-10-01T20:56:04.952Z,98.89
2022-10-01T20:58:38.509Z,98.88
2022-10-01T21:01:12.667Z,98.60
2022-10-01T21:03:44.380Z,98.71
2022-10-01T21:06:21.802Z,98.78
2022-10-01T21:08:57.310Z,98.84
2022-10-01T21:11:28.234Z,98.82
2022-10-01T21:14:05.829Z,98.79
2022-10-01T21:16:38.101Z,98.70
2022-10-01T21:19:25.022Z,98.79
2022-10-01T21:22:22.451Z,99.03
2022-10-01T21:25:16.274Z,99.23
2022-10-01T21:28:01.447Z,99.38
2022-10-01T21:30:53.003Z,99.48
2022-10-01T21:33:33.070Z,99.37
2022-10-01T21:36:11.029Z,99.23
2022-10-01T21:38:48.925Z,99.56
2022-10-01T21:41:50.062Z,99.30
2022-10-01T21:45:02.926Z,99.37
2022-10-01T21:47:32.268Z,99.41
2022-10-01T21:50:31.503Z,99.55
2022-10-01T21:53:06.715Z,99.51
2022-10-01T21:55:58.778Z,99.53
2022-10-01T21:58:58.695Z,99.74
2022-10-01T22:01:37.758Z,99.66
2022-10-01T22:04:15.547Z,99.64
2022-10-01T22:07:25.634Z,99.48
2022-10-01T22:10:15.441Z,99.51
2022-10-01T22:12:45.821Z,99.99
2022-10-01T22:15:39.927Z,99.96
2022-10-01T22:18:11.958Z,99.99
2022-10-01T22:20:41.024Z,99.99
2022-10-01T22:23:11.442Z,99.99
2022-10-01T22:25:48.581Z,99.99
2022-10-01T22:28:20.886Z,99.99
2022-10-01T22:30:49.709Z,99.99
2022-10-01T22:33:19.410Z,99.99
2022-10-01T22:35:57.905Z,99.99
2022-10-01T22:38:30.947Z,99.99
2022-10-01T22:41:08.632Z,99.99
2022-10-01T22:43:35.621Z,99.99
2022-10-01T22:46:21.127Z,99.99
2022-10-01T22:49:19.513Z,99.99
2022-10-01T22:52:04.636Z,99.99
2022-10-01T22:54:55.014Z,99.99
2022-10-01T22:58:09.411Z,99.99
2022-10-01T23:00:45.005Z,99.99
2022-10-01T23:03:28.774Z,99.99
2022-10-01T23:06:15.059Z,99.99
2022-10-01T23:08:58.167Z,99.99
2022-10-01T23:11:35.232Z,99.99
2022-10-01T23:14:26.210Z,99.99
2022-10-01T23:17:03.817Z,99.99
2022-10-01T23:19:45.567Z,99.99
2022-10-01T23:22:29.131Z,99.99
2022-10-01T23:25:23.931Z,99.99
2022-10-01T23:28:07.723Z,99.99
2022-10-01T23:30:51.766Z,99.99
2022-10-01T23:33:43.817Z,99.99
2022-10-01T23:36:29.950Z,99.99
2022-10-01T23:39:08.379Z,99.99
2022-10-01T23:41:49.797Z,99.99
2022-10-01T23:44:36.273Z,99.99
2022-10-01T23:47:09.686Z,99.99
2022-10-01T23:49:40.491Z,99.99
2022-10-01T23:52:44.911Z,99.99
2022-10-01T23:55:49.684Z,99.99
2022-10-01T23:58:18.033Z,99.99
